Hrossey — VSTY6 — position and weather

sailwx.info

Track history (hours):
 
Tides and Currents Weather Stations Pressure Air Temp Water Temp Dewpoint Dewpoint Depression Visibility Wind Speed Wind Dir Waves Ship Positions

Hrossey

Operator: NorthLink Orkey & Shetland Ferries Ltd

Last reported at 2019-May-20 16:58 UTC. Time now 2019-May-20 17:30 UTC.
Position N 57°09' W 002°05'.

Length 125 m; draft 5.4 m.

Type: Ship. MMSI: 235448000.

Date/timePositionNaut miles runAvg speedWind from/ knotsBaromVisibWave heightAir tempDewpointWater temp
2019-May-20 16:58N 57°09' W 002°05'0 0.0
2019-May-20 16:28N 57°09' W 002°05'0 0.0
2019-May-20 15:58N 57°09' W 002°05'0 0.0
2019-May-20 15:28N 57°09' W 002°05'0 0.0
2019-May-20 14:58N 57°09' W 002°05'0 0.0
2019-May-20 14:28N 57°09' W 002°05'0 0.0
2019-May-20 13:58N 57°09' W 002°05'0 0.0
2019-May-20 13:28N 57°09' W 002°05'0 0.0
2019-May-20 12:58N 57°09' W 002°05'0 0.0
2019-May-20 12:28N 57°09' W 002°05'0 0.0
2019-May-20 11:58N 57°09' W 002°05'0 0.0
2019-May-20 11:28N 57°09' W 002°05'0 0.0
2019-May-20 10:58N 57°09' W 002°05'0 0.0
2019-May-20 10:28N 57°09' W 002°05'0 0.0
2019-May-20 09:58N 57°09' W 002°05'0 0.0
2019-May-20 09:28N 57°09' W 002°05'0 0.0
2019-May-20 08:59N 57°09' W 002°05'0 0.0
2019-May-20 08:29N 57°09' W 002°05'0 0.0
2019-May-20 07:59N 57°09' W 002°05'0 0.0
2019-May-20 07:29N 57°09' W 002°05'0 0.0
2019-May-20 06:59N 57°09' W 002°05'0 0.0
2019-May-20 06:29N 57°09' W 002°05'0 0.0
2019-May-20 05:59N 57°09' W 002°05'0 1.0
2019-May-20 05:30N 57°09' W 002°05'4 7.4
2019-May-20 05:00N 57°11' W 001°59'917.0
2019-May-20 04:29N 57°18' W 001°49'714.1
2019-May-20 04:01N 57°23' W 001°42'816.0
2019-May-20 03:31N 57°31' W 001°39'96 3.6
2019-May-19 00:28N 59°04' W 002°28'711.4
2019-May-18 23:54N 59°00' W 002°39'616.5
2019-May-18 23:30N 59°01' W 002°52'4 2.2
2019-May-18 21:53N 58°60' W 002°58'512.3
2019-May-18 21:31N 59°01' W 002°50'917.8
2019-May-18 21:01N 58°55' W 002°36'8223.1
2019-May-18 17:26N 57°37' W 001°43'1125.0
2019-May-18 17:01N 57°27' W 001°41'1224.4
2019-May-18 16:30N 57°16' W 001°53'1020.2
2019-May-18 16:00N 57°08' W 002°04'1 1.3
2019-May-18 15:29N 57°09' W 002°05'0 0.0
2019-May-18 14:59N 57°09' W 002°05'0 0.0
2019-May-18 14:29N 57°09' W 002°05'0 0.0
2019-May-18 13:59N 57°09' W 002°05'0 0.0
2019-May-18 13:29N 57°09' W 002°05'0 0.0
2019-May-18 12:59N 57°09' W 002°05'0 0.0
2019-May-18 12:29N 57°09' W 002°05'0 0.0
2019-May-18 11:59N 57°09' W 002°05'0 0.0
2019-May-18 11:29N 57°09' W 002°05'0 0.0
2019-May-18 10:59N 57°09' W 002°05'0 0.0
2019-May-18 10:29N 57°09' W 002°05'0 0.0
2019-May-18 09:59N 57°09' W 002°05'0 0.0
2019-May-18 09:29N 57°09' W 002°05'0 0.0
2019-May-18 08:59N 57°09' W 002°05'0 0.0
2019-May-18 08:29N 57°09' W 002°05'0 0.0
2019-May-18 07:59N 57°09' W 002°05'0 0.0
2019-May-18 07:29N 57°09' W 002°05'0 0.0
2019-May-18 06:59N 57°09' W 002°05'0 0.0
2019-May-18 06:29N 57°09' W 002°05'0 0.0
2019-May-18 05:58N 57°09' W 002°05'1 1.1
2019-May-18 05:30N 57°09' W 002°05'713.6
2019-May-18 05:00N 57°14' W 001°56'1118.5
2019-May-18 04:26N 57°23' W 001°47'819.4
2019-May-18 04:00N 57°31' W 001°43'7920.8
2019-May-18 00:13N 58°46' W 002°30'521.7
2019-May-18 00:00N 58°50' W 002°33'1121.6
2019-May-17 23:30N 58°60' W 002°43'815.9
2019-May-17 23:00N 58°60' W 002°58'0 0.1
2019-May-17 21:41N 58°60' W 002°58'0 0.1
2019-May-17 21:30N 58°60' W 002°58'612.1
2019-May-17 21:00N 59°00' W 002°47'816.2
2019-May-17 20:30N 59°00' W 002°31'918.1
2019-May-17 20:00N 59°07' W 002°20'1122.3
2019-May-17 19:30N 59°16' W 002°07'1121.6
2019-May-17 19:00N 59°25' W 001°54'1121.1
2019-May-17 18:29N 59°33' W 001°41'38 2.1
2019-May-17 00:21N 59°04' W 002°28'513.2
2019-May-16 23:58N 59°01' W 002°35'715.9
2019-May-16 23:30N 59°01' W 002°50'5 6.9
2019-May-16 22:50N 58°60' W 002°58'0 0.0
2019-May-16 22:23N 58°60' W 002°58'0 0.0
2019-May-16 21:58N 58°60' W 002°58'613.0
2019-May-16 21:30N 59°00' W 002°47'917.2
2019-May-16 21:00N 58°54' W 002°36'3620.3
2019-May-16 19:13N 58°20' W 002°11'523.0
2019-May-16 18:58N 58°15' W 002°07'1123.2
2019-May-16 18:30N 58°04' W 002°01'1223.5
2019-May-16 18:00N 57°53' W 001°53'3124.1
2019-May-16 16:43N 57°22' W 001°47'525.3
2019-May-16 16:30N 57°18' W 001°51'1122.3
2019-May-16 16:00N 57°09' W 002°04'1 1.7
2019-May-16 15:30N 57°09' W 002°05'0 0.0
2019-May-16 15:00N 57°09' W 002°05'0 0.0
2019-May-16 14:30N 57°09' W 002°05'0 0.0
2019-May-16 14:00N 57°09' W 002°05'0 0.0
2019-May-16 13:29N 57°09' W 002°05'0 0.0
2019-May-16 12:57N 57°09' W 002°05'0 0.0
2019-May-16 12:29N 57°09' W 002°05'0 0.0
2019-May-16 11:59N 57°09' W 002°05'0 0.0
2019-May-16 11:29N 57°09' W 002°05'0 0.0
2019-May-16 11:00N 57°09' W 002°05'0 0.0
2019-May-16 10:30N 57°09' W 002°05'0 0.0
2019-May-16 10:00N 57°09' W 002°05'0 0.0
2019-May-16 09:30N 57°09' W 002°05'0 0.0
2019-May-16 09:00N 57°09' W 002°05'0 0.0
2019-May-16 08:30N 57°09' W 002°05'0 0.0
2019-May-16 08:00N 57°09' W 002°05'0 0.0
2019-May-16 07:30N 57°09' W 002°05'0 0.0
2019-May-16 07:00N 57°09' W 002°05'0 0.0
2019-May-16 06:30N 57°09' W 002°05'0 0.0
2019-May-16 06:00N 57°09' W 002°05'1 1.3
2019-May-16 05:31N 57°08' W 002°04'713.2
2019-May-16 05:00N 57°13' W 001°56'816.4
2019-May-16 04:29N 57°20' W 001°48'5818.9
2019-May-16 01:25N 58°18' W 002°08'920.5
2019-May-16 01:00N 58°26' W 002°14'1120.5
2019-May-16 00:29N 58°35' W 002°22'1120.5
2019-May-15 23:56N 58°46' W 002°30'1221.0
2019-May-15 23:21N 58°57' W 002°39'718.8
2019-May-15 23:00N 59°00' W 002°50'4 5.1
2019-May-15 22:09N 58°60' W 002°58'0 0.0
2019-May-15 21:57N 58°60' W 002°58'0 0.0
2019-May-15 21:26N 58°60' W 002°58'2 5.7
2019-May-15 21:00N 59°01' W 002°54'15 0.8
2019-May-15 00:56N 59°06' W 002°25'717.0
2019-May-15 00:30N 59°01' W 002°36'816.6
2019-May-15 00:00N 59°01' W 002°52'3 6.6
2019-May-14 23:30N 58°60' W 002°58'0 0.0
2019-May-14 22:55N 58°60' W 002°58'0 0.0
2019-May-14 22:28N 58°60' W 002°58'0 0.0
2019-May-14 22:00N 58°60' W 002°58'611.8
2019-May-14 21:30N 59°00' W 002°47'1020.8
2019-May-14 21:00N 58°52' W 002°34'1223.1
2019-May-14 20:30N 58°42' W 002°25'1122.9
2019-May-14 20:00N 58°31' W 002°18'1223.0
2019-May-14 19:30N 58°20' W 002°10'1123.0
2019-May-14 19:00N 58°09' W 002°02'1423.3
2019-May-14 18:23N 57°56' W 001°53'3622.5
2019-May-14 16:49N 57°21' W 001°49'723.9
2019-May-14 16:31N 57°14' W 001°55'815.2
2019-May-14 16:00N 57°09' W 002°05'0 0.6
2019-May-14 15:30N 57°09' W 002°05'0 0.0
2019-May-14 15:00N 57°09' W 002°05'0 0.0
2019-May-14 14:30N 57°09' W 002°05'0 0.0
2019-May-14 14:00N 57°09' W 002°05'0 0.0
2019-May-14 13:30N 57°09' W 002°05'0 0.0
2019-May-14 13:00N 57°09' W 002°05'0 0.0
2019-May-14 12:28N 57°09' W 002°05'0 0.0
2019-May-14 11:58N 57°09' W 002°05'0 0.0
2019-May-14 11:28N 57°09' W 002°05'0 0.0
2019-May-14 10:58N 57°09' W 002°05'0 0.0
2019-May-14 10:28N 57°09' W 002°05'0 0.0
2019-May-14 09:58N 57°09' W 002°05'0 0.0
2019-May-14 09:28N 57°09' W 002°05'0 0.0
2019-May-14 08:58N 57°09' W 002°05'0 0.0
2019-May-14 08:28N 57°09' W 002°05'0 0.0
2019-May-14 07:58N 57°09' W 002°05'0 0.0
2019-May-14 07:28N 57°09' W 002°05'0 0.0
2019-May-14 06:58N 57°09' W 002°05'0 0.0
2019-May-14 06:28N 57°09' W 002°05'0 0.0
2019-May-14 06:01N 57°09' W 002°05'1 1.3
2019-May-14 05:30N 57°08' W 002°04'713.2
2019-May-14 05:00N 57°13' W 001°56'917.2
2019-May-14 04:30N 57°21' W 001°48'10519.9
2019-May-13 23:14N 59°00' W 002°48'419.0
2019-May-13 23:00N 59°01' W 002°56'2 3.0
2019-May-13 22:24N 58°60' W 002°58'0 0.0
2019-May-13 21:59N 58°60' W 002°58'2 3.9
2019-May-13 21:30N 59°01' W 002°56'816.1
2019-May-13 21:00N 59°00' W 002°40'7 0.3
2019-May-13 00:00N 59°04' W 002°28'711.6
2019-May-12 23:24N 59°01' W 002°40'513.0
2019-May-12 23:00N 59°01' W 002°50'4 8.7
2019-May-12 22:30N 58°60' W 002°58'0 0.0
2019-May-12 21:51N 58°60' W 002°58'2 6.6
2019-May-12 21:30N 59°01' W 002°55'1221.5
2019-May-12 20:57N 58°54' W 002°35'9322.8
2019-May-12 16:51N 57°25' W 001°44'822.7
2019-May-12 16:30N 57°18' W 001°51'1122.5
2019-May-12 16:00N 57°09' W 002°03'1 2.4
2019-May-12 15:29N 57°09' W 002°05'0 0.0
2019-May-12 14:59N 57°09' W 002°05'0 0.0
2019-May-12 14:29N 57°09' W 002°05'0 0.0
2019-May-12 13:59N 57°09' W 002°05'0 0.0
2019-May-12 13:29N 57°09' W 002°05'0 0.0
2019-May-12 12:59N 57°09' W 002°05'0 0.0
2019-May-12 12:29N 57°09' W 002°05'0 0.0
2019-May-12 11:59N 57°09' W 002°05'0 0.0
2019-May-12 11:29N 57°09' W 002°05'0 0.0
2019-May-12 10:59N 57°09' W 002°05'0 0.0
2019-May-12 10:29N 57°09' W 002°05'0 0.0
2019-May-12 09:59N 57°09' W 002°05'0 0.0
2019-May-12 09:29N 57°09' W 002°05'0 0.0
2019-May-12 08:59N 57°09' W 002°05'0 0.0
2019-May-12 08:29N 57°09' W 002°05'0 0.0
2019-May-12 07:59N 57°09' W 002°05'0 0.0
2019-May-12 07:29N 57°09' W 002°05'0 0.0
2019-May-12 06:59N 57°09' W 002°05'0 0.0
2019-May-12 06:29N 57°09' W 002°05'0 0.0
2019-May-12 05:59N 57°09' W 002°05'1 1.3
2019-May-12 05:31N 57°08' W 002°04'713.4
2019-May-12 05:00N 57°13' W 001°56'7 0.2
2019-May-10 18:57N 57°19' W 001°49'613.4
2019-May-10 18:30N 57°14' W 001°54'714.6
2019-May-10 18:00N 57°09' W 002°04'1 2.0
2019-May-10 17:30N 57°09' W 002°05'0 0.0
2019-May-10 17:00N 57°09' W 002°05'  
Track history (hours):
 
Tides and Currents Weather Stations Pressure Air Temp Water Temp Dewpoint Dewpoint Depression Visibility Wind Speed Wind Dir Waves Ship Positions

Hrossey

Operator: NorthLink Orkey & Shetland Ferries Ltd

Last reported at 2019-May-20 16:58 UTC. Time now 2019-May-20 17:30 UTC.
Position N 57°09' W 002°05'.

Length 125 m; draft 5.4 m.

Type: Ship. MMSI: 235448000.

Date/timePositionNaut miles runAvg speedWind from/ knotsBaromVisibWave heightAir tempDewpointWater temp
2019-May-20 16:58N 57°09' W 002°05'0 0.0
2019-May-20 16:28N 57°09' W 002°05'0 0.0
2019-May-20 15:58N 57°09' W 002°05'0 0.0
2019-May-20 15:28N 57°09' W 002°05'0 0.0
2019-May-20 14:58N 57°09' W 002°05'0 0.0
2019-May-20 14:28N 57°09' W 002°05'0 0.0
2019-May-20 13:58N 57°09' W 002°05'0 0.0
2019-May-20 13:28N 57°09' W 002°05'0 0.0
2019-May-20 12:58N 57°09' W 002°05'0 0.0
2019-May-20 12:28N 57°09' W 002°05'0 0.0
2019-May-20 11:58N 57°09' W 002°05'0 0.0
2019-May-20 11:28N 57°09' W 002°05'0 0.0
2019-May-20 10:58N 57°09' W 002°05'0 0.0
2019-May-20 10:28N 57°09' W 002°05'0 0.0
2019-May-20 09:58N 57°09' W 002°05'0 0.0
2019-May-20 09:28N 57°09' W 002°05'0 0.0
2019-May-20 08:59N 57°09' W 002°05'0 0.0
2019-May-20 08:29N 57°09' W 002°05'0 0.0
2019-May-20 07:59N 57°09' W 002°05'0 0.0
2019-May-20 07:29N 57°09' W 002°05'0 0.0
2019-May-20 06:59N 57°09' W 002°05'0 0.0
2019-May-20 06:29N 57°09' W 002°05'0 0.0
2019-May-20 05:59N 57°09' W 002°05'0 1.0
2019-May-20 05:30N 57°09' W 002°05'4 7.4
2019-May-20 05:00N 57°11' W 001°59'917.0
2019-May-20 04:29N 57°18' W 001°49'714.1
2019-May-20 04:01N 57°23' W 001°42'816.0
2019-May-20 03:31N 57°31' W 001°39'96 3.6
2019-May-19 00:28N 59°04' W 002°28'711.4
2019-May-18 23:54N 59°00' W 002°39'616.5
2019-May-18 23:30N 59°01' W 002°52'4 2.2
2019-May-18 21:53N 58°60' W 002°58'512.3
2019-May-18 21:31N 59°01' W 002°50'917.8
2019-May-18 21:01N 58°55' W 002°36'8223.1
2019-May-18 17:26N 57°37' W 001°43'1125.0
2019-May-18 17:01N 57°27' W 001°41'1224.4
2019-May-18 16:30N 57°16' W 001°53'1020.2
2019-May-18 16:00N 57°08' W 002°04'1 1.3
2019-May-18 15:29N 57°09' W 002°05'0 0.0
2019-May-18 14:59N 57°09' W 002°05'0 0.0
2019-May-18 14:29N 57°09' W 002°05'0 0.0
2019-May-18 13:59N 57°09' W 002°05'0 0.0
2019-May-18 13:29N 57°09' W 002°05'0 0.0
2019-May-18 12:59N 57°09' W 002°05'0 0.0
2019-May-18 12:29N 57°09' W 002°05'0 0.0
2019-May-18 11:59N 57°09' W 002°05'0 0.0
2019-May-18 11:29N 57°09' W 002°05'0 0.0
2019-May-18 10:59N 57°09' W 002°05'0 0.0
2019-May-18 10:29N 57°09' W 002°05'0 0.0
2019-May-18 09:59N 57°09' W 002°05'0 0.0
2019-May-18 09:29N 57°09' W 002°05'0 0.0
2019-May-18 08:59N 57°09' W 002°05'0 0.0
2019-May-18 08:29N 57°09' W 002°05'0 0.0
2019-May-18 07:59N 57°09' W 002°05'0 0.0
2019-May-18 07:29N 57°09' W 002°05'0 0.0
2019-May-18 06:59N 57°09' W 002°05'0 0.0
2019-May-18 06:29N 57°09' W 002°05'0 0.0
2019-May-18 05:58N 57°09' W 002°05'1 1.1
2019-May-18 05:30N 57°09' W 002°05'713.6
2019-May-18 05:00N 57°14' W 001°56'1118.5
2019-May-18 04:26N 57°23' W 001°47'819.4
2019-May-18 04:00N 57°31' W 001°43'7920.8
2019-May-18 00:13N 58°46' W 002°30'521.7
2019-May-18 00:00N 58°50' W 002°33'1121.6
2019-May-17 23:30N 58°60' W 002°43'815.9
2019-May-17 23:00N 58°60' W 002°58'0 0.1
2019-May-17 21:41N 58°60' W 002°58'0 0.1
2019-May-17 21:30N 58°60' W 002°58'612.1
2019-May-17 21:00N 59°00' W 002°47'816.2
2019-May-17 20:30N 59°00' W 002°31'918.1
2019-May-17 20:00N 59°07' W 002°20'1122.3
2019-May-17 19:30N 59°16' W 002°07'1121.6
2019-May-17 19:00N 59°25' W 001°54'1121.1
2019-May-17 18:29N 59°33' W 001°41'38 2.1
2019-May-17 00:21N 59°04' W 002°28'513.2
2019-May-16 23:58N 59°01' W 002°35'715.9
2019-May-16 23:30N 59°01' W 002°50'5 6.9
2019-May-16 22:50N 58°60' W 002°58'0 0.0
2019-May-16 22:23N 58°60' W 002°58'0 0.0
2019-May-16 21:58N 58°60' W 002°58'613.0
2019-May-16 21:30N 59°00' W 002°47'917.2
2019-May-16 21:00N 58°54' W 002°36'3620.3
2019-May-16 19:13N 58°20' W 002°11'523.0
2019-May-16 18:58N 58°15' W 002°07'1123.2
2019-May-16 18:30N 58°04' W 002°01'1223.5
2019-May-16 18:00N 57°53' W 001°53'3124.1
2019-May-16 16:43N 57°22' W 001°47'525.3
2019-May-16 16:30N 57°18' W 001°51'1122.3
2019-May-16 16:00N 57°09' W 002°04'1 1.7
2019-May-16 15:30N 57°09' W 002°05'0 0.0
2019-May-16 15:00N 57°09' W 002°05'0 0.0
2019-May-16 14:30N 57°09' W 002°05'0 0.0
2019-May-16 14:00N 57°09' W 002°05'0 0.0
2019-May-16 13:29N 57°09' W 002°05'0 0.0
2019-May-16 12:57N 57°09' W 002°05'0 0.0
2019-May-16 12:29N 57°09' W 002°05'0 0.0
2019-May-16 11:59N 57°09' W 002°05'0 0.0
2019-May-16 11:29N 57°09' W 002°05'0 0.0
2019-May-16 11:00N 57°09' W 002°05'0 0.0
2019-May-16 10:30N 57°09' W 002°05'0 0.0
2019-May-16 10:00N 57°09' W 002°05'0 0.0
2019-May-16 09:30N 57°09' W 002°05'0 0.0
2019-May-16 09:00N 57°09' W 002°05'0 0.0
2019-May-16 08:30N 57°09' W 002°05'0 0.0
2019-May-16 08:00N 57°09' W 002°05'0 0.0
2019-May-16 07:30N 57°09' W 002°05'0 0.0
2019-May-16 07:00N 57°09' W 002°05'0 0.0
2019-May-16 06:30N 57°09' W 002°05'0 0.0
2019-May-16 06:00N 57°09' W 002°05'1 1.3
2019-May-16 05:31N 57°08' W 002°04'713.2
2019-May-16 05:00N 57°13' W 001°56'816.4
2019-May-16 04:29N 57°20' W 001°48'5818.9
2019-May-16 01:25N 58°18' W 002°08'920.5
2019-May-16 01:00N 58°26' W 002°14'1120.5
2019-May-16 00:29N 58°35' W 002°22'1120.5
2019-May-15 23:56N 58°46' W 002°30'1221.0
2019-May-15 23:21N 58°57' W 002°39'718.8
2019-May-15 23:00N 59°00' W 002°50'4 5.1
2019-May-15 22:09N 58°60' W 002°58'0 0.0
2019-May-15 21:57N 58°60' W 002°58'0 0.0
2019-May-15 21:26N 58°60' W 002°58'2 5.7
2019-May-15 21:00N 59°01' W 002°54'15 0.8
2019-May-15 00:56N 59°06' W 002°25'717.0
2019-May-15 00:30N 59°01' W 002°36'816.6
2019-May-15 00:00N 59°01' W 002°52'3 6.6
2019-May-14 23:30N 58°60' W 002°58'0 0.0
2019-May-14 22:55N 58°60' W 002°58'0 0.0
2019-May-14 22:28N 58°60' W 002°58'0 0.0
2019-May-14 22:00N 58°60' W 002°58'611.8
2019-May-14 21:30N 59°00' W 002°47'1020.8
2019-May-14 21:00N 58°52' W 002°34'1223.1
2019-May-14 20:30N 58°42' W 002°25'1122.9
2019-May-14 20:00N 58°31' W 002°18'1223.0
2019-May-14 19:30N 58°20' W 002°10'1123.0
2019-May-14 19:00N 58°09' W 002°02'1423.3
2019-May-14 18:23N 57°56' W 001°53'3622.5
2019-May-14 16:49N 57°21' W 001°49'723.9
2019-May-14 16:31N 57°14' W 001°55'815.2
2019-May-14 16:00N 57°09' W 002°05'0 0.6
2019-May-14 15:30N 57°09' W 002°05'0 0.0
2019-May-14 15:00N 57°09' W 002°05'0 0.0
2019-May-14 14:30N 57°09' W 002°05'0 0.0
2019-May-14 14:00N 57°09' W 002°05'0 0.0
2019-May-14 13:30N 57°09' W 002°05'0 0.0
2019-May-14 13:00N 57°09' W 002°05'0 0.0
2019-May-14 12:28N 57°09' W 002°05'0 0.0
2019-May-14 11:58N 57°09' W 002°05'0 0.0
2019-May-14 11:28N 57°09' W 002°05'0 0.0
2019-May-14 10:58N 57°09' W 002°05'0 0.0
2019-May-14 10:28N 57°09' W 002°05'0 0.0
2019-May-14 09:58N 57°09' W 002°05'0 0.0
2019-May-14 09:28N 57°09' W 002°05'0 0.0
2019-May-14 08:58N 57°09' W 002°05'0 0.0
2019-May-14 08:28N 57°09' W 002°05'0 0.0
2019-May-14 07:58N 57°09' W 002°05'0 0.0
2019-May-14 07:28N 57°09' W 002°05'0 0.0
2019-May-14 06:58N 57°09' W 002°05'0 0.0
2019-May-14 06:28N 57°09' W 002°05'0 0.0
2019-May-14 06:01N 57°09' W 002°05'1 1.3
2019-May-14 05:30N 57°08' W 002°04'713.2
2019-May-14 05:00N 57°13' W 001°56'917.2
2019-May-14 04:30N 57°21' W 001°48'10519.9
2019-May-13 23:14N 59°00' W 002°48'419.0
2019-May-13 23:00N 59°01' W 002°56'2 3.0
2019-May-13 22:24N 58°60' W 002°58'0 0.0
2019-May-13 21:59N 58°60' W 002°58'2 3.9
2019-May-13 21:30N 59°01' W 002°56'816.1
2019-May-13 21:00N 59°00' W 002°40'7 0.3
2019-May-13 00:00N 59°04' W 002°28'711.6
2019-May-12 23:24N 59°01' W 002°40'513.0
2019-May-12 23:00N 59°01' W 002°50'4 8.7
2019-May-12 22:30N 58°60' W 002°58'0 0.0
2019-May-12 21:51N 58°60' W 002°58'2 6.6
2019-May-12 21:30N 59°01' W 002°55'1221.5
2019-May-12 20:57N 58°54' W 002°35'9322.8
2019-May-12 16:51N 57°25' W 001°44'822.7
2019-May-12 16:30N 57°18' W 001°51'1122.5
2019-May-12 16:00N 57°09' W 002°03'1 2.4
2019-May-12 15:29N 57°09' W 002°05'0 0.0
2019-May-12 14:59N 57°09' W 002°05'0 0.0
2019-May-12 14:29N 57°09' W 002°05'0 0.0
2019-May-12 13:59N 57°09' W 002°05'0 0.0
2019-May-12 13:29N 57°09' W 002°05'0 0.0
2019-May-12 12:59N 57°09' W 002°05'0 0.0
2019-May-12 12:29N 57°09' W 002°05'0 0.0
2019-May-12 11:59N 57°09' W 002°05'0 0.0
2019-May-12 11:29N 57°09' W 002°05'0 0.0
2019-May-12 10:59N 57°09' W 002°05'0 0.0
2019-May-12 10:29N 57°09' W 002°05'0 0.0
2019-May-12 09:59N 57°09' W 002°05'0 0.0
2019-May-12 09:29N 57°09' W 002°05'0 0.0
2019-May-12 08:59N 57°09' W 002°05'0 0.0
2019-May-12 08:29N 57°09' W 002°05'0 0.0
2019-May-12 07:59N 57°09' W 002°05'0 0.0
2019-May-12 07:29N 57°09' W 002°05'0 0.0
2019-May-12 06:59N 57°09' W 002°05'0 0.0
2019-May-12 06:29N 57°09' W 002°05'0 0.0
2019-May-12 05:59N 57°09' W 002°05'1 1.3
2019-May-12 05:31N 57°08' W 002°04'713.4
2019-May-12 05:00N 57°13' W 001°56'7 0.2
2019-May-10 18:57N 57°19' W 001°49'613.4
2019-May-10 18:30N 57°14' W 001°54'714.6
2019-May-10 18:00N 57°09' W 002°04'1 2.0
2019-May-10 17:30N 57°09' W 002°05'0 0.0
2019-May-10 17:00N 57°09' W 002°05'  

Dump ship's entire track history